Time;durP1;ratioP1;P1;durP2;ratioP2;P2;SDS_P1;SDS_P2;PMS_P1;PMS_P2;Temp;Humidity;BMP_temperature;BMP_pressure;BME280_temperature;BME280_humidity;BME280_pressure;Samples;Min_cycle;Max_cycle;Signal;HPM_P1;HPM_P2
2021/06/01 00:01:28;;;;;;;13.07;9.37;;;14.10;99.90;;;;;;5099187;28;20495;-84
2021/06/01 00:03:55;;;;;;;8.10;7.07;;;14.00;99.90;;;;;;5098892;28;20451;-84
2021/06/01 00:06:21;;;;;;;18.53;8.90;;;14.10;99.90;;;;;;5088597;28;20547;-84
2021/06/01 00:08:47;;;;;;;10.80;8.70;;;14.00;99.90;;;;;;5080817;28;20444;-84
2021/06/01 00:11:16;;;;;;;8.13;7.23;;;13.90;99.90;;;;;;5080436;28;20453;-84
2021/06/01 00:13:42;;;;;;;11.60;9.03;;;13.80;99.90;;;;;;5082072;28;20482;-84
2021/06/01 00:16:10;;;;;;;12.40;9.33;;;13.70;99.90;;;;;;5093105;28;20480;-84
2021/06/01 00:18:36;;;;;;;11.40;7.53;;;13.70;99.90;;;;;;5094159;28;20436;-84
2021/06/01 00:21:05;;;;;;;10.70;8.57;;;13.80;99.90;;;;;;5096987;28;20433;-83
2021/06/01 00:23:33;;;;;;;12.80;10.03;;;13.80;99.90;;;;;;5090994;28;20444;-84
2021/06/01 00:25:59;;;;;;;14.10;7.63;;;13.90;99.90;;;;;;5082879;28;20479;-84
2021/06/01 00:28:26;;;;;;;10.60;7.33;;;13.70;99.90;;;;;;5082891;28;20439;-84
2021/06/01 00:30:52;;;;;;;9.40;8.23;;;13.70;99.90;;;;;;5080198;28;20482;-84
2021/06/01 00:33:19;;;;;;;11.43;8.17;;;13.60;99.90;;;;;;5080243;28;20813;-84
2021/06/01 00:35:45;;;;;;;12.50;9.07;;;13.60;99.90;;;;;;5081864;28;20606;-84
2021/06/01 00:38:11;;;;;;;9.77;8.40;;;13.70;99.90;;;;;;5081264;28;20501;-84
2021/06/01 00:40:37;;;;;;;12.60;8.10;;;13.70;99.90;;;;;;5087687;28;20828;-83
2021/06/01 00:43:03;;;;;;;11.23;7.10;;;13.80;99.90;;;;;;5088833;28;20484;-84
2021/06/01 00:45:31;;;;;;;8.47;7.50;;;13.80;99.90;;;;;;5078971;28;20554;-84
2021/06/01 00:47:57;;;;;;;12.80;8.47;;;13.90;99.90;;;;;;5078034;28;20954;-84
2021/06/01 00:50:26;;;;;;;8.47;7.67;;;14.00;99.90;;;;;;5079115;28;20444;-84
2021/06/01 00:52:53;;;;;;;11.03;7.80;;;13.90;99.90;;;;;;5079702;28;20505;-84
2021/06/01 00:55:20;;;;;;;13.03;8.43;;;13.90;99.90;;;;;;5079623;28;20936;-84
2021/06/01 00:57:46;;;;;;;18.53;9.03;;;14.00;99.90;;;;;;5079383;28;20415;-84
2021/06/01 01:00:29;;;;;;;14.37;8.83;;;14.00;99.90;;;;;;5079908;28;20452;-84
2021/06/01 01:02:57;;;;;;;10.63;9.10;;;14.00;99.90;;;;;;5081906;28;20468;-83
2021/06/01 01:05:26;;;;;;;16.20;9.10;;;14.00;99.90;;;;;;5095619;28;20457;-83
2021/06/01 01:08:04;;;;;;;12.30;8.80;;;14.00;99.90;;;;;;5086989;28;20486;-84
2021/06/01 01:10:33;;;;;;;12.33;8.70;;;14.10;99.90;;;;;;5081266;28;20448;-84
2021/06/01 01:13:01;;;;;;;15.63;9.13;;;14.10;99.90;;;;;;5080029;28;20437;-84
2021/06/01 01:15:29;;;;;;;9.73;8.20;;;14.00;99.90;;;;;;5099688;22;20484;-87
2021/06/01 01:18:01;;;;;;;14.17;8.87;;;14.00;99.90;;;;;;5077779;28;20441;-87
2021/06/01 01:20:35;;;;;;;10.90;8.20;;;13.80;99.90;;;;;;5079018;28;20448;-87
2021/06/01 01:23:10;;;;;;;11.20;7.90;;;13.60;99.90;;;;;;5081270;28;20471;-88
2021/06/01 01:25:41;;;;;;;17.67;9.10;;;13.50;99.90;;;;;;5080637;28;20471;-86
2021/06/01 01:28:21;;;;;;;11.53;7.83;;;13.40;99.90;;;;;;5079451;28;20437;-86
2021/06/01 01:30:53;;;;;;;11.10;7.93;;;13.40;99.90;;;;;;5078645;28;20937;-86
2021/06/01 01:33:23;;;;;;;8.43;7.63;;;13.40;99.90;;;;;;5078405;28;20927;-85
2021/06/01 01:35:53;;;;;;;9.90;8.03;;;13.40;99.90;;;;;;5077984;28;20457;-86
2021/06/01 01:38:21;;;;;;;10.70;8.27;;;13.40;99.90;;;;;;5078338;28;20518;-86
2021/06/01 01:40:48;;;;;;;8.70;7.30;;;13.30;99.90;;;;;;5078102;28;20506;-86
2021/06/01 01:43:17;;;;;;;9.40;8.40;;;13.40;99.90;;;;;;5080437;28;20476;-85
2021/06/01 01:45:48;;;;;;;10.30;9.27;;;13.30;99.90;;;;;;5078432;28;20568;-85
2021/06/01 01:51:11;;;;;;;9.70;7.70;;;13.20;99.90;;;;;;5078794;28;20401;-86
2021/06/01 01:53:41;;;;;;;8.23;7.40;;;13.30;99.90;;;;;;5078085;28;20421;-86
2021/06/01 01:56:07;;;;;;;10.40;8.03;;;13.30;99.90;;;;;;5077103;28;20990;-86
2021/06/01 01:58:35;;;;;;;12.30;8.63;;;13.30;99.90;;;;;;5077806;28;20433;-85
2021/06/01 02:01:02;;;;;;;14.77;8.07;;;13.20;99.90;;;;;;5076727;28;20445;-85
2021/06/01 02:03:28;;;;;;;16.47;8.60;;;13.20;99.90;;;;;;5077087;28;20506;-85
2021/06/01 02:09:18;;;;;;;10.50;7.40;;;13.20;99.90;;;;;;5077556;28;20848;-86
2021/06/01 02:11:44;;;;;;;9.97;8.17;;;13.10;99.90;;;;;;5077591;28;20437;-85
2021/06/01 02:14:10;;;;;;;9.97;8.43;;;13.20;99.90;;;;;;5076463;28;20423;-86
2021/06/01 02:16:39;;;;;;;10.63;8.67;;;13.10;99.90;;;;;;5075705;28;20476;-86
2021/06/01 02:19:06;;;;;;;11.30;8.30;;;13.20;99.90;;;;;;5076466;28;20488;-86
2021/06/01 02:21:58;;;;;;;9.60;8.47;;;13.20;99.90;;;;;;5077019;28;20445;-86
2021/06/01 02:24:29;;;;;;;12.20;8.70;;;13.20;99.90;;;;;;5076345;28;20433;-86
2021/06/01 02:27:01;;;;;;;10.43;7.90;;;13.20;99.90;;;;;;5076255;28;20547;-86
2021/06/01 02:29:31;;;;;;;11.07;7.83;;;13.20;99.90;;;;;;5076415;28;20440;-86
2021/06/01 02:32:00;;;;;;;11.10;7.90;;;13.20;99.90;;;;;;5077111;28;20767;-86
2021/06/01 02:34:28;;;;;;;13.07;9.40;;;13.30;99.90;;;;;;5080555;28;20477;-86
2021/06/01 02:36:55;;;;;;;11.73;8.03;;;13.30;99.90;;;;;;5076521;28;20468;-86
2021/06/01 02:39:22;;;;;;;10.53;8.27;;;13.20;99.90;;;;;;5076109;28;20497;-86
2021/06/01 02:41:52;;;;;;;9.80;8.67;;;13.20;99.90;;;;;;5075935;28;20476;-87
2021/06/01 02:44:19;;;;;;;9.30;7.70;;;13.20;99.90;;;;;;5076522;28;20444;-86
2021/06/01 02:46:46;;;;;;;10.17;8.37;;;12.90;99.90;;;;;;5076090;28;20854;-86
2021/06/01 02:49:14;;;;;;;9.23;8.30;;;12.90;99.90;;;;;;5076061;28;20445;-86
2021/06/01 02:51:40;;;;;;;8.90;7.30;;;13.00;99.90;;;;;;5076326;28;20552;-86
2021/06/01 02:54:07;;;;;;;10.30;8.37;;;13.10;99.90;;;;;;5077171;28;20452;-86
2021/06/01 02:56:34;;;;;;;12.77;8.60;;;13.10;99.90;;;;;;5077551;28;20475;-86
2021/06/01 02:59:08;;;;;;;10.40;8.47;;;13.20;99.90;;;;;;5078375;28;20476;-86
2021/06/01 03:01:34;;;;;;;8.90;8.00;;;13.10;99.90;;;;;;5085545;28;20417;-86
2021/06/01 03:04:01;;;;;;;11.37;8.00;;;13.10;99.90;;;;;;5097867;28;20421;-85
2021/06/01 03:06:29;;;;;;;11.03;8.63;;;13.20;99.90;;;;;;5097719;28;20465;-86
2021/06/01 03:08:55;;;;;;;9.90;8.97;;;13.20;99.90;;;;;;5098444;28;20464;-85
2021/06/01 03:11:22;;;;;;;12.53;9.17;;;13.10;99.90;;;;;;5096262;28;20453;-86
2021/06/01 03:13:50;;;;;;;8.83;7.93;;;13.20;99.90;;;;;;5096894;28;20451;-86
2021/06/01 03:16:19;;;;;;;10.47;8.60;;;13.10;99.90;;;;;;5097375;28;20477;-86
2021/06/01 03:18:45;;;;;;;9.53;8.57;;;13.20;99.90;;;;;;5097568;28;20431;-86
2021/06/01 03:21:12;;;;;;;12.20;9.67;;;13.30;99.90;;;;;;5097366;28;20451;-86
2021/06/01 03:23:38;;;;;;;10.87;9.00;;;13.30;99.90;;;;;;5096829;28;20464;-86
2021/06/01 03:26:05;;;;;;;10.13;8.43;;;13.30;99.90;;;;;;5096087;28;20467;-85
2021/06/01 03:28:31;;;;;;;12.03;9.60;;;13.30;99.90;;;;;;5095756;28;20421;-86
2021/06/01 03:30:57;;;;;;;11.90;8.67;;;13.20;99.90;;;;;;5092793;28;20449;-86
2021/06/01 03:33:37;;;;;;;10.17;9.03;;;13.20;99.90;;;;;;5093903;28;20447;-86
2021/06/01 03:36:05;;;;;;;9.67;8.67;;;13.20;99.90;;;;;;5096402;28;20475;-86
2021/06/01 03:38:33;;;;;;;11.00;9.90;;;13.10;99.90;;;;;;5097902;28;20421;-85
2021/06/01 03:40:59;;;;;;;11.80;8.40;;;13.10;99.90;;;;;;5097851;28;20452;-86
2021/06/01 03:43:25;;;;;;;10.77;7.63;;;13.10;99.90;;;;;;5097619;28;20481;-87
2021/06/01 03:45:51;;;;;;;9.97;8.07;;;13.20;99.90;;;;;;5096790;28;20465;-86
2021/06/01 03:48:17;;;;;;;9.20;8.30;;;13.20;99.90;;;;;;5088644;28;20451;-86
2021/06/01 03:50:45;;;;;;;12.30;8.40;;;13.30;99.90;;;;;;5084588;28;20419;-86
2021/06/01 03:53:11;;;;;;;17.67;8.53;;;13.40;99.90;;;;;;5082909;28;20451;-87
2021/06/01 03:55:37;;;;;;;9.50;8.50;;;13.50;99.90;;;;;;5081134;28;20439;-86
2021/06/01 03:58:03;;;;;;;13.27;8.67;;;13.50;99.90;;;;;;5079920;28;20517;-86
2021/06/01 04:00:30;;;;;;;12.30;8.57;;;13.50;99.90;;;;;;5078136;28;20528;-86
2021/06/01 04:02:57;;;;;;;14.50;9.50;;;13.50;99.90;;;;;;5076383;28;20222;-86
2021/06/01 04:05:24;;;;;;;14.83;9.80;;;13.60;99.90;;;;;;5076503;28;20465;-86
2021/06/01 04:07:52;;;;;;;15.13;10.67;;;13.70;99.90;;;;;;5076427;28;20455;-86
2021/06/01 04:10:19;;;;;;;13.73;8.93;;;13.80;99.90;;;;;;5075783;28;20502;-86
2021/06/01 04:12:45;;;;;;;10.38;9.27;;;13.90;99.90;;;;;;5077171;28;20430;-87
2021/06/01 04:15:12;;;;;;;11.70;8.73;;;13.90;99.90;;;;;;5076991;28;20761;-86
2021/06/01 04:17:38;;;;;;;13.67;9.90;;;14.00;99.90;;;;;;5078738;28;20456;-87
2021/06/01 04:20:07;;;;;;;12.80;10.50;;;14.00;99.90;;;;;;5077461;28;20452;-87
2021/06/01 04:22:36;;;;;;;12.85;8.80;;;14.00;99.90;;;;;;5077314;28;20457;-87
2021/06/01 04:25:05;;;;;;;14.20;8.60;;;14.30;99.90;;;;;;5080519;28;20207;-87
2021/06/01 04:27:31;;;;;;;12.20;9.10;;;14.10;99.90;;;;;;5080572;28;20470;-87
2021/06/01 04:29:57;;;;;;;14.10;8.93;;;14.10;99.90;;;;;;5080709;28;20863;-87
2021/06/01 04:32:24;;;;;;;10.20;8.33;;;14.20;99.90;;;;;;5080844;28;20452;-87
2021/06/01 04:34:50;;;;;;;13.40;9.20;;;14.20;99.90;;;;;;5081656;28;20813;-87
2021/06/01 04:37:16;;;;;;;12.30;8.90;;;14.20;99.90;;;;;;5082215;28;20880;-87
2021/06/01 04:39:42;;;;;;;15.50;10.73;;;14.20;99.90;;;;;;5081827;28;20449;-87
2021/06/01 04:42:10;;;;;;;13.60;9.73;;;14.30;99.90;;;;;;5081470;28;21025;-87
2021/06/01 04:44:36;;;;;;;10.23;8.80;;;;;;;;;;5087777;28;20417;-87
2021/06/01 04:47:02;;;;;;;14.53;10.10;;;14.40;99.90;;;;;;5083728;28;20468;-86
2021/06/01 04:49:29;;;;;;;16.53;10.33;;;14.50;99.90;;;;;;5083385;28;20444;-87
2021/06/01 04:51:55;;;;;;;12.87;10.23;;;14.60;99.90;;;;;;5079589;28;20449;-87
2021/06/01 04:54:21;;;;;;;14.33;11.13;;;14.70;99.90;;;;;;5080226;28;20476;-87
2021/06/01 04:56:47;;;;;;;17.60;11.40;;;14.70;99.90;;;;;;5079466;28;20543;-87
2021/06/01 04:59:15;;;;;;;14.23;10.40;;;14.80;99.90;;;;;;5077780;28;20449;-87
2021/06/01 05:01:41;;;;;;;10.90;9.80;;;14.90;99.90;;;;;;5078171;28;20455;-87
2021/06/01 05:04:07;;;;;;;16.40;10.40;;;14.90;99.90;;;;;;5077560;28;20795;-87
2021/06/01 05:06:34;;;;;;;13.10;10.30;;;14.90;99.90;;;;;;5078585;28;20469;-87
2021/06/01 05:09:00;;;;;;;12.93;8.63;;;14.90;99.90;;;;;;5078092;28;20449;-87
2021/06/01 05:11:29;;;;;;;13.60;9.70;;;15.00;99.90;;;;;;5078276;28;20437;-87
2021/06/01 05:13:55;;;;;;;16.57;11.40;;;15.00;99.90;;;;;;5077662;28;20444;-87
2021/06/01 05:16:23;;;;;;;14.83;10.40;;;15.00;99.90;;;;;;5077837;28;20487;-86
2021/06/01 05:18:49;;;;;;;15.80;11.00;;;15.10;99.90;;;;;;5078152;28;20494;-87
2021/06/01 05:21:17;;;;;;;18.40;13.30;;;15.10;99.90;;;;;;5078171;28;20452;-87
2021/06/01 05:23:43;;;;;;;14.97;11.40;;;15.10;99.90;;;;;;5078068;28;20484;-87
2021/06/01 05:26:09;;;;;;;19.37;10.83;;;15.10;99.90;;;;;;5078908;28;20457;-87
2021/06/01 05:28:38;;;;;;;16.80;11.37;;;15.20;99.90;;;;;;5078588;28;20452;-87
2021/06/01 05:31:16;;;;;;;17.27;11.37;;;15.30;99.90;;;;;;5085327;28;20947;-87
2021/06/01 05:33:49;;;;;;;15.83;11.00;;;15.30;99.90;;;;;;5082432;28;20429;-88
2021/06/01 05:36:15;;;;;;;22.50;12.07;;;15.30;99.90;;;;;;5080357;28;20545;-87
2021/06/01 05:38:41;;;;;;;21.73;10.83;;;15.30;99.90;;;;;;5079114;28;20448;-88
2021/06/01 05:41:07;;;;;;;26.00;11.70;;;15.40;99.90;;;;;;5077909;28;20456;-88
2021/06/01 05:43:34;;;;;;;16.43;10.47;;;15.40;99.90;;;;;;5078278;28;20483;-87
2021/06/01 05:46:00;;;;;;;15.87;9.03;;;15.50;99.90;;;;;;5078333;28;20464;-87
2021/06/01 05:48:26;;;;;;;18.97;12.00;;;15.60;99.90;;;;;;5078053;28;20977;-87
2021/06/01 05:50:55;;;;;;;14.47;10.07;;;15.60;99.90;;;;;;5078674;28;20861;-87
2021/06/01 05:53:23;;;;;;;13.00;9.73;;;15.70;99.90;;;;;;5077253;28;20463;-87
2021/06/01 05:55:50;;;;;;;14.67;10.40;;;15.70;99.90;;;;;;5077879;28;20468;-87
2021/06/01 05:58:16;;;;;;;14.80;11.00;;;15.80;99.90;;;;;;5079058;28;20448;-87
2021/06/01 06:00:42;;;;;;;16.97;10.53;;;16.00;99.90;;;;;;5077427;28;20452;-87
2021/06/01 06:03:09;;;;;;;12.10;9.03;;;15.90;99.90;;;;;;5081459;28;20509;-87
2021/06/01 06:05:35;;;;;;;13.17;9.70;;;15.90;99.90;;;;;;5078028;28;20464;-87
2021/06/01 06:08:14;;;;;;;14.77;9.00;;;16.00;99.90;;;;;;5077496;28;20511;-87
2021/06/01 06:10:41;;;;;;;14.97;8.93;;;16.30;99.90;;;;;;5077611;28;20440;-87
2021/06/01 06:13:10;;;;;;;11.47;8.70;;;16.40;99.90;;;;;;5077665;28;20441;-87
2021/06/01 06:15:36;;;;;;;10.37;8.43;;;16.40;99.90;;;;;;5076923;28;20573;-87
2021/06/01 06:18:07;;;;;;;15.10;11.40;;;16.30;99.90;;;;;;5077397;28;20444;-87
2021/06/01 06:20:35;;;;;;;10.27;8.60;;;16.40;99.90;;;;;;5084097;28;20478;-87
2021/06/01 06:23:01;;;;;;;16.80;9.27;;;16.30;99.90;;;;;;5078056;28;20484;-87
2021/06/01 06:25:29;;;;;;;12.87;10.33;;;16.40;99.90;;;;;;5077221;28;20913;-87
2021/06/01 06:27:56;;;;;;;10.27;8.70;;;16.40;99.90;;;;;;5077490;28;20811;-87
2021/06/01 06:30:24;;;;;;;17.63;10.50;;;16.40;99.90;;;;;;5077910;28;20452;-87
2021/06/01 06:32:50;;;;;;;12.67;8.50;;;16.50;99.90;;;;;;5078218;28;20444;-87
2021/06/01 06:35:17;;;;;;;10.80;9.17;;;16.60;99.90;;;;;;5077750;28;20472;-87
2021/06/01 06:37:43;;;;;;;9.60;8.40;;;16.70;99.90;;;;;;5079203;28;20476;-87
2021/06/01 06:40:10;;;;;;;12.23;10.37;;;16.80;99.90;;;;;;5089973;28;20500;-88
2021/06/01 06:42:39;;;;;;;15.57;9.30;;;16.90;99.90;;;;;;5098520;28;20481;-87
2021/06/01 06:45:07;;;;;;;13.13;10.33;;;17.00;99.90;;;;;;5098716;28;20507;-86
2021/06/01 06:47:58;;;;;;;11.80;9.33;;;17.00;99.90;;;;;;5098650;28;20414;-86
2021/06/01 06:50:26;;;;;;;12.27;9.23;;;17.20;99.90;;;;;;5098859;28;20429;-86
2021/06/01 06:52:52;;;;;;;16.90;9.03;;;17.40;99.90;;;;;;5099013;28;20438;-87
2021/06/01 06:55:19;;;;;;;10.40;8.10;;;17.40;99.90;;;;;;5098198;28;20492;-87
2021/06/01 06:57:46;;;;;;;14.63;9.43;;;17.50;99.90;;;;;;5097565;28;20434;-88
2021/06/01 07:00:14;;;;;;;18.70;8.60;;;17.50;99.90;;;;;;5096588;28;20433;-88
2021/06/01 07:02:41;;;;;;;10.33;7.80;;;17.70;99.90;;;;;;5090735;28;20460;-87
2021/06/01 07:05:10;;;;;;;11.60;8.57;;;17.60;99.90;;;;;;5083236;28;20506;-88
2021/06/01 07:07:36;;;;;;;12.67;8.83;;;17.80;99.90;;;;;;5083284;28;20487;-88
2021/06/01 07:10:03;;;;;;;14.17;8.50;;;17.80;99.90;;;;;;5081645;28;20441;-88
2021/06/01 07:12:29;;;;;;;18.07;9.97;;;17.70;99.90;;;;;;5078166;28;20445;-89
2021/06/01 07:15:10;;;;;;;17.30;8.83;;;18.00;99.90;;;;;;5077755;28;20453;-88
2021/06/01 07:17:36;;;;;;;12.47;10.53;;;17.90;99.90;;;;;;5094176;22;20493;-85
2021/06/01 07:20:02;;;;;;;13.90;9.00;;;18.00;99.90;;;;;;5084443;28;20464;-85
2021/06/01 07:22:28;;;;;;;15.13;9.33;;;18.10;99.90;;;;;;5082368;28;20538;-83
2021/06/01 07:24:55;;;;;;;11.63;9.27;;;18.30;99.90;;;;;;5092482;28;20439;-84
2021/06/01 07:27:21;;;;;;;12.00;8.73;;;18.40;99.90;;;;;;5179286;22;20603;-83
2021/06/01 07:29:47;;;;;;;13.30;8.60;;;18.50;99.90;;;;;;5084337;28;20614;-83
2021/06/01 07:32:16;;;;;;;13.23;8.97;;;18.60;99.90;;;;;;5092264;28;20429;-83
2021/06/01 07:34:42;;;;;;;14.03;8.97;;;18.80;99.90;;;;;;5087126;28;20433;-85
2021/06/01 07:37:08;;;;;;;11.80;9.17;;;18.70;99.90;;;;;;5081430;28;20468;-85
2021/06/01 07:39:35;;;;;;;9.53;8.53;;;18.80;99.90;;;;;;5082897;28;20491;-84
2021/06/01 07:42:01;;;;;;;9.37;8.30;;;18.80;99.90;;;;;;5082381;28;20454;-83
2021/06/01 07:44:29;;;;;;;8.03;7.20;;;18.80;99.90;;;;;;5081952;28;20539;-86
2021/06/01 07:46:56;;;;;;;7.20;6.27;;;19.00;99.90;;;;;;5078976;28;20493;-84
2021/06/01 07:49:23;;;;;;;7.40;6.50;;;19.10;99.90;;;;;;5080809;28;20443;-84
2021/06/01 07:51:49;;;;;;;9.83;6.83;;;19.10;99.90;;;;;;5078099;28;20455;-84
2021/06/01 07:54:15;;;;;;;9.27;6.53;;;19.30;99.90;;;;;;5089094;28;20449;-85
2021/06/01 07:56:42;;;;;;;11.83;7.10;;;19.20;99.90;;;;;;5083942;28;20531;-83
2021/06/01 07:59:08;;;;;;;7.70;6.90;;;19.30;99.90;;;;;;5081690;28;20450;-83
2021/06/01 08:01:34;;;;;;;10.93;7.90;;;19.30;99.90;;;;;;5083381;28;20448;-84
2021/06/01 08:04:00;;;;;;;9.50;6.33;;;19.40;99.90;;;;;;5083066;28;20491;-85
2021/06/01 08:06:30;;;;;;;10.93;6.47;;;19.40;99.90;;;;;;5082043;28;20474;-84
2021/06/01 08:08:56;;;;;;;10.43;7.30;;;19.50;99.90;;;;;;5082709;28;20435;-84
2021/06/01 08:11:22;;;;;;;8.47;6.67;;;19.60;99.90;;;;;;5082375;28;20462;-84
2021/06/01 08:13:49;;;;;;;8.70;6.30;;;19.60;99.90;;;;;;5083376;28;20423;-84
2021/06/01 08:16:15;;;;;;;10.03;6.00;;;19.60;99.90;;;;;;5081114;28;20467;-84
2021/06/01 08:18:49;;;;;;;7.37;6.77;;;19.60;99.90;;;;;;5080881;28;20451;-84
2021/06/01 08:21:18;;;;;;;7.27;5.87;;;19.70;99.90;;;;;;5080851;28;20435;-84
2021/06/01 08:23:45;;;;;;;6.20;5.40;;;19.80;99.90;;;;;;5081681;28;20484;-84
2021/06/01 08:26:12;;;;;;;8.23;6.07;;;20.00;99.90;;;;;;5081620;28;20491;-84
2021/06/01 08:28:38;;;;;;;5.90;5.40;;;20.00;99.90;;;;;;5081682;28;20489;-84
2021/06/01 08:31:04;;;;;;;9.30;5.50;;;20.10;99.90;;;;;;5081725;28;20451;-84
2021/06/01 08:33:31;;;;;;;7.77;6.63;;;20.30;99.90;;;;;;5082251;28;21022;-85
2021/06/01 08:35:58;;;;;;;6.70;6.00;;;20.30;99.90;;;;;;5085728;28;20463;-84
2021/06/01 08:38:24;;;;;;;9.70;6.07;;;20.40;99.90;;;;;;5093462;28;20486;-83
2021/06/01 08:40:52;;;;;;;15.30;6.87;;;20.50;99.90;;;;;;5092896;28;20478;-83
2021/06/01 08:43:21;;;;;;;6.70;5.87;;;20.50;99.90;;;;;;5096808;28;20488;-83
2021/06/01 08:45:51;;;;;;;6.87;5.13;;;20.70;99.90;;;;;;5097553;28;20471;-84
2021/06/01 08:48:18;;;;;;;5.87;5.30;;;20.90;99.90;;;;;;5083007;28;20521;-85
2021/06/01 08:50:46;;;;;;;6.93;6.23;;;21.10;99.90;;;;;;5088110;28;20456;-84
2021/06/01 08:53:13;;;;;;;5.67;5.17;;;21.10;99.90;;;;;;5090164;28;20441;-83
2021/06/01 08:55:39;;;;;;;5.80;4.77;;;21.00;99.90;;;;;;5083199;28;20457;-84
2021/06/01 08:58:12;;;;;;;10.70;5.50;;;21.00;99.90;;;;;;5082291;28;20429;-84
2021/06/01 09:00:38;;;;;;;7.23;5.00;;;21.00;99.90;;;;;;5083530;28;20429;-84
2021/06/01 09:03:10;;;;;;;6.67;5.10;;;20.90;99.90;;;;;;5081886;28;20534;-84
2021/06/01 09:05:38;;;;;;;8.70;5.20;;;20.70;99.90;;;;;;5079848;28;20445;-84
2021/06/01 09:08:08;;;;;;;5.93;4.80;;;20.70;99.90;;;;;;5084497;28;20449;-84
2021/06/01 09:10:51;;;;;;;5.67;5.07;;;20.80;99.90;;;;;;5086522;28;20471;-84
2021/06/01 09:21:35;;;;;;;9.27;5.30;;;21.20;99.90;;;;;;5096048;28;20413;-80
2021/06/01 09:24:04;;;;;;;8.30;5.07;;;21.10;99.90;;;;;;5096638;28;20487;-79
2021/06/01 09:26:42;;;;;;;6.77;6.17;;;21.00;99.90;;;;;;5095842;28;20461;-79
2021/06/01 09:29:09;;;;;;;5.07;4.57;;;21.10;99.90;;;;;;5094077;28;20428;-78
2021/06/01 09:31:35;;;;;;;7.10;5.10;;;21.00;99.90;;;;;;5082320;28;20433;-78
2021/06/01 09:34:02;;;;;;;8.70;6.33;;;21.00;99.90;;;;;;5083079;28;20441;-84
2021/06/01 09:36:28;;;;;;;7.00;5.73;;;21.00;99.90;;;;;;5089433;28;20456;-84
2021/06/01 09:38:56;;;;;;;5.70;4.63;;;21.10;99.90;;;;;;5084408;28;20440;-84
2021/06/01 09:41:27;;;;;;;7.10;5.00;;;21.30;99.90;;;;;;5086241;28;20432;-84
2021/06/01 09:43:55;;;;;;;8.13;4.90;;;21.30;99.90;;;;;;5081975;28;20476;-85
2021/06/01 09:46:24;;;;;;;5.47;4.97;;;21.40;99.90;;;;;;5079905;28;20791;-85
2021/06/01 09:48:51;;;;;;;6.10;4.77;;;21.60;99.90;;;;;;5080502;28;20449;-84
2021/06/01 09:51:26;;;;;;;6.57;5.60;;;21.70;99.90;;;;;;5080561;28;20441;-85
2021/06/01 09:53:55;;;;;;;7.67;5.33;;;21.70;99.90;;;;;;5080831;28;20494;-85
2021/06/01 09:56:21;;;;;;;6.30;5.20;;;21.80;99.90;;;;;;5081034;28;20935;-84
2021/06/01 09:58:47;;;;;;;5.23;4.53;;;21.80;99.90;;;;;;5080593;28;20448;-84
2021/06/01 10:01:14;;;;;;;5.03;4.63;;;21.80;99.90;;;;;;5080258;28;20997;-85
2021/06/01 10:03:44;;;;;;;7.40;4.60;;;21.80;99.90;;;;;;5079821;28;20531;-86
2021/06/01 10:06:10;;;;;;;4.37;3.97;;;21.80;99.90;;;;;;5085337;28;20528;-85
2021/06/01 10:08:44;;;;;;;5.10;4.70;;;21.80;99.90;;;;;;5089717;28;20452;-83
2021/06/01 10:11:11;;;;;;;6.70;4.10;;;21.80;99.90;;;;;;5095462;28;20425;-85
2021/06/01 10:13:38;;;;;;;4.93;4.03;;;21.80;99.90;;;;;;5087405;28;20441;-85
2021/06/01 10:16:07;;;;;;;9.40;4.33;;;21.80;99.90;;;;;;5085275;28;20492;-85
2021/06/01 10:18:33;;;;;;;7.10;4.10;;;22.00;99.90;;;;;;5084962;28;20497;-85
2021/06/01 10:21:03;;;;;;;3.07;2.80;;;22.10;99.90;;;;;;5080142;28;20444;-84
2021/06/01 10:23:33;;;;;;;3.20;2.90;;;22.20;97.50;;;;;;5085586;28;20484;-85
2021/06/01 10:26:01;;;;;;;7.10;3.53;;;22.30;94.70;;;;;;5084310;28;20560;-85
2021/06/01 10:28:31;;;;;;;2.80;2.60;;;22.40;92.30;;;;;;5081149;28;20590;-85
2021/06/01 10:30:58;;;;;;;3.70;3.40;;;22.60;95.30;;;;;;5086739;28;20437;-85
2021/06/01 10:33:27;;;;;;;4.50;3.37;;;22.60;94.00;;;;;;5085783;28;20472;-85
2021/06/01 10:48:38;;;;;;;5.50;3.30;;;22.50;94.40;;;;;;5011294;28;20480;-83
2021/06/01 10:50:39;;;;;;;3.20;2.90;;;22.80;93.30;;;;;;5090397;28;20422;-85
2021/06/01 10:53:13;;;;;;;3.33;3.13;;;22.80;93.80;;;;;;5083682;28;20441;-85
2021/06/01 10:56:01;;;;;;;4.27;3.40;;;22.60;90.80;;;;;;5084288;28;20429;-85
2021/06/01 10:58:56;;;;;;;4.27;3.77;;;22.70;91.70;;;;;;5091633;28;20433;-83
2021/06/01 11:04:09;;;;;;;5.63;4.33;;;22.60;88.40;;;;;;5090570;28;20527;-85
2021/06/01 11:07:24;;;;;;;4.00;3.70;;;22.60;91.10;;;;;;5091306;28;20461;-84
2021/06/01 11:09:50;;;;;;;4.07;3.77;;;22.50;90.90;;;;;;5083362;28;20450;-85
2021/06/01 11:12:46;;;;;;;3.53;3.23;;;22.50;90.30;;;;;;5083526;28;20498;-85
2021/06/01 11:15:30;;;;;;;4.17;3.87;;;22.40;88.70;;;;;;5081988;28;20448;-85
2021/06/01 11:18:17;;;;;;;4.00;3.70;;;22.50;91.30;;;;;;5081888;28;20447;-85
2021/06/01 11:21:15;;;;;;;5.73;4.07;;;22.50;91.00;;;;;;5088363;28;20429;-85
2021/06/01 11:33:10;;;;;;;4.50;3.77;;;22.70;91.10;;;;;;5097909;28;20485;-83
2021/06/01 11:35:39;;;;;;;6.43;4.37;;;22.90;88.00;;;;;;5093575;28;20432;-85
2021/06/01 11:38:09;;;;;;;4.30;3.60;;;22.90;84.00;;;;;;5088099;28;20915;-86
2021/06/01 11:40:51;;;;;;;5.00;4.20;;;22.90;88.60;;;;;;5099829;28;20481;-86
2021/06/01 11:43:18;;;;;;;5.37;4.27;;;23.00;91.20;;;;;;5096553;28;20564;-85
2021/06/01 11:46:04;;;;;;;4.93;4.30;;;23.10;87.20;;;;;;5089398;28;20493;-84
2021/06/01 11:51:17;;;;;;;5.13;4.63;;;22.80;90.90;;;;;;5094170;28;20468;-85
2021/06/01 11:54:02;;;;;;;4.63;3.40;;;22.80;87.90;;;;;;5092194;28;20429;-85
2021/06/01 11:57:10;;;;;;;4.50;4.10;;;22.50;83.90;;;;;;5091759;28;20464;-84
2021/06/01 12:02:55;;;;;;;5.53;4.17;;;22.70;90.30;;;;;;5092634;28;20421;-85
2021/06/01 12:14:11;;;;;;;4.50;4.10;;;22.60;92.10;;;;;;5094258;28;20457;-83
2021/06/01 12:19:24;;;;;;;6.83;3.43;;;22.60;81.70;;;;;;5091527;28;20429;-84
2021/06/01 12:21:51;;;;;;;4.87;3.40;;;22.70;85.20;;;;;;5091326;28;20494;-83
2021/06/01 12:24:25;;;;;;;4.63;2.60;;;22.90;82.60;;;;;;5089902;28;20452;-83
2021/06/01 12:26:59;;;;;;;3.57;3.27;;;23.00;83.70;;;;;;5088568;28;20456;-84
2021/06/01 12:32:14;;;;;;;4.67;2.93;;;23.20;81.90;;;;;;5089835;28;20474;-86
2021/06/01 12:34:52;;;;;;;3.20;3.00;;;23.10;76.70;;;;;;5087432;28;20444;-85
2021/06/01 12:43:25;;;;;;;6.20;3.70;;;23.20;74.70;;;;;;5086543;28;20457;-84
2021/06/01 12:45:58;;;;;;;6.67;4.00;;;23.10;74.00;;;;;;5086687;28;20453;-84
2021/06/01 13:20:36;;;;;;;4.40;2.43;;;23.70;68.70;;;;;;5001463;28;20497;-84
2021/06/01 13:31:42;;;;;;;5.73;3.87;;;23.80;67.90;;;;;;5084697;28;20963;-85
2021/06/01 13:37:19;;;;;;;2.83;2.50;;;23.80;59.30;;;;;;5086354;28;20460;-85
2021/06/01 13:39:48;;;;;;;3.40;2.07;;;23.90;63.10;;;;;;5088205;28;20434;-85
2021/06/01 13:47:57;;;;;;;7.40;3.27;;;24.00;64.70;;;;;;5099210;28;20470;-82
2021/06/01 13:50:32;;;;;;;1.80;1.50;;;23.90;63.30;;;;;;5098906;28;20479;-83
2021/06/01 13:55:04;;;;;;;4.50;1.70;;;24.10;59.80;;;;;;5099060;28;20429;-82
2021/06/01 13:55:55;;;;;;;3.00;1.50;;;24.00;58.90;;;;;;5089098;28;20983;-85
2021/06/01 14:01:08;;;;;;;2.00;1.90;;;23.90;55.80;;;;;;5080338;28;20464;-84
2021/06/01 14:20:31;;;;;;;5.03;2.20;;;23.50;49.40;;;;;;5095069;28;20437;-84
2021/06/01 14:31:51;;;;;;;3.23;1.70;;;23.70;50.00;;;;;;5084023;28;20402;-86
2021/06/01 14:37:22;;;;;;;1.70;1.60;;;23.30;48.40;;;;;;5086474;28;20444;-86
2021/06/01 15:03:48;;;;;;;4.63;1.63;;;23.20;53.30;;;;;;5093178;28;20510;-85
2021/06/01 15:30:43;;;;;;;2.50;1.80;;;23.20;58.30;;;;;;5087115;28;20487;-84
2021/06/01 15:49:43;;;;;;;7.20;2.60;;;22.40;56.30;;;;;;5083909;28;20416;-85
2021/06/01 15:52:47;;;;;;;2.13;2.03;;;22.40;54.60;;;;;;5088273;28;20449;-85
2021/06/01 16:12:33;;;;;;;11.00;3.60;;;22.40;62.90;;;;;;5074929;28;20478;-86
2021/06/01 16:15:13;;;;;;;6.33;4.40;;;22.00;68.50;;;;;;5084693;28;20425;-85
2021/06/01 16:23:26;;;;;;;5.97;4.17;;;21.00;80.40;;;;;;5088189;28;20472;-85
2021/06/01 16:31:40;;;;;;;5.23;4.10;;;20.80;84.30;;;;;;5083566;28;20472;-85
2021/06/01 16:42:56;;;;;;;10.23;4.40;;;20.50;83.90;;;;;;5084794;28;20484;-84
2021/06/01 17:04:43;;;;;;;4.97;4.57;;;20.20;90.00;;;;;;5095276;28;20482;-86
2021/06/01 17:07:19;;;;;;;6.80;3.90;;;20.20;90.10;;;;;;5097972;28;20490;-84
2021/06/01 17:12:44;;;;;;;4.67;3.80;;;20.10;90.70;;;;;;5092521;28;20417;-85
2021/06/01 17:15:12;;;;;;;4.70;4.27;;;20.10;90.90;;;;;;5093044;28;20445;-83
2021/06/01 17:17:44;;;;;;;5.07;3.90;;;20.10;90.80;;;;;;5090364;28;20495;-83
2021/06/01 17:23:17;;;;;;;6.30;4.60;;;20.10;90.90;;;;;;5081670;28;20463;-85
2021/06/01 17:31:44;;;;;;;8.90;4.83;;;20.30;90.60;;;;;;5064023;28;20413;-84